sensor_id;sensor_type;location;lat;lon;timestamp;P1;durP1;ratioP1;P2;durP2;ratioP2
75820;SDS011;64454;51.984;9.838;2023-02-28T00:01:29;5.60;;;2.90;;
75820;SDS011;64454;51.984;9.838;2023-02-28T00:03:56;3.88;;;2.85;;
75820;SDS011;64454;51.984;9.838;2023-02-28T00:06:23;4.93;;;2.83;;
75820;SDS011;64454;51.984;9.838;2023-02-28T00:08:50;3.70;;;2.50;;
75820;SDS011;64454;51.984;9.838;2023-02-28T00:11:17;4.50;;;2.80;;
75820;SDS011;64454;51.984;9.838;2023-02-28T00:13:45;4.65;;;2.60;;
75820;SDS011;64454;51.984;9.838;2023-02-28T00:16:15;3.40;;;2.50;;
75820;SDS011;64454;51.984;9.838;2023-02-28T00:18:45;3.77;;;2.60;;
75820;SDS011;64454;51.984;9.838;2023-02-28T00:21:13;4.28;;;2.67;;
75820;SDS011;64454;51.984;9.838;2023-02-28T00:23:40;5.85;;;3.13;;
75820;SDS011;64454;51.984;9.838;2023-02-28T00:26:07;4.93;;;3.10;;
75820;SDS011;64454;51.984;9.838;2023-02-28T00:28:34;4.70;;;2.90;;
75820;SDS011;64454;51.984;9.838;2023-02-28T00:31:01;5.10;;;2.83;;
75820;SDS011;64454;51.984;9.838;2023-02-28T00:33:29;4.80;;;2.75;;
75820;SDS011;64454;51.984;9.838;2023-02-28T00:36:03;5.13;;;3.20;;
75820;SDS011;64454;51.984;9.838;2023-02-28T00:38:31;4.22;;;2.90;;
75820;SDS011;64454;51.984;9.838;2023-02-28T00:40:58;3.53;;;2.42;;
75820;SDS011;64454;51.984;9.838;2023-02-28T00:43:29;5.32;;;2.90;;
75820;SDS011;64454;51.984;9.838;2023-02-28T00:45:57;3.67;;;2.22;;
75820;SDS011;64454;51.984;9.838;2023-02-28T00:48:24;4.60;;;2.85;;
75820;SDS011;64454;51.984;9.838;2023-02-28T00:50:52;7.43;;;3.53;;
75820;SDS011;64454;51.984;9.838;2023-02-28T00:53:19;6.13;;;2.75;;
75820;SDS011;64454;51.984;9.838;2023-02-28T00:55:46;4.20;;;2.45;;
75820;SDS011;64454;51.984;9.838;2023-02-28T00:58:14;4.78;;;2.70;;
75820;SDS011;64454;51.984;9.838;2023-02-28T01:00:41;8.93;;;3.60;;
75820;SDS011;64454;51.984;9.838;2023-02-28T01:03:08;7.43;;;3.38;;
75820;SDS011;64454;51.984;9.838;2023-02-28T01:05:34;7.20;;;2.95;;
75820;SDS011;64454;51.984;9.838;2023-02-28T01:08:03;5.82;;;2.72;;
75820;SDS011;64454;51.984;9.838;2023-02-28T01:10:31;5.05;;;3.30;;
75820;SDS011;64454;51.984;9.838;2023-02-28T01:12:58;4.03;;;2.47;;
75820;SDS011;64454;51.984;9.838;2023-02-28T01:15:24;5.55;;;3.20;;
75820;SDS011;64454;51.984;9.838;2023-02-28T01:17:51;6.55;;;3.05;;
75820;SDS011;64454;51.984;9.838;2023-02-28T01:20:18;5.15;;;2.80;;
75820;SDS011;64454;51.984;9.838;2023-02-28T01:22:45;6.45;;;2.78;;
75820;SDS011;64454;51.984;9.838;2023-02-28T01:25:14;4.68;;;3.03;;
75820;SDS011;64454;51.984;9.838;2023-02-28T01:27:40;5.38;;;2.95;;
75820;SDS011;64454;51.984;9.838;2023-02-28T01:30:08;6.30;;;3.60;;
75820;SDS011;64454;51.984;9.838;2023-02-28T01:32:36;5.00;;;2.80;;
75820;SDS011;64454;51.984;9.838;2023-02-28T01:35:03;6.22;;;3.03;;
75820;SDS011;64454;51.984;9.838;2023-02-28T01:37:30;3.80;;;2.70;;
75820;SDS011;64454;51.984;9.838;2023-02-28T01:39:57;7.65;;;3.17;;
75820;SDS011;64454;51.984;9.838;2023-02-28T01:42:25;5.10;;;3.15;;
75820;SDS011;64454;51.984;9.838;2023-02-28T01:45:00;5.80;;;3.20;;
75820;SDS011;64454;51.984;9.838;2023-02-28T01:47:42;3.85;;;2.50;;
75820;SDS011;64454;51.984;9.838;2023-02-28T01:50:12;5.95;;;3.00;;
75820;SDS011;64454;51.984;9.838;2023-02-28T01:52:43;4.63;;;2.95;;
75820;SDS011;64454;51.984;9.838;2023-02-28T01:55:14;7.10;;;3.10;;
75820;SDS011;64454;51.984;9.838;2023-02-28T01:57:46;4.85;;;3.30;;
75820;SDS011;64454;51.984;9.838;2023-02-28T02:00:19;4.53;;;3.00;;
75820;SDS011;64454;51.984;9.838;2023-02-28T02:02:52;4.32;;;2.90;;
75820;SDS011;64454;51.984;9.838;2023-02-28T02:05:24;5.03;;;3.50;;
75820;SDS011;64454;51.984;9.838;2023-02-28T02:07:56;5.13;;;2.85;;
75820;SDS011;64454;51.984;9.838;2023-02-28T02:10:29;5.22;;;3.10;;
75820;SDS011;64454;51.984;9.838;2023-02-28T02:13:14;5.13;;;3.13;;
75820;SDS011;64454;51.984;9.838;2023-02-28T02:16:02;5.63;;;3.15;;
75820;SDS011;64454;51.984;9.838;2023-02-28T02:18:44;4.38;;;2.60;;
75820;SDS011;64454;51.984;9.838;2023-02-28T02:21:24;3.17;;;2.40;;
75820;SDS011;64454;51.984;9.838;2023-02-28T02:24:41;3.13;;;2.15;;
75820;SDS011;64454;51.984;9.838;2023-02-28T02:27:42;3.80;;;2.20;;
75820;SDS011;64454;51.984;9.838;2023-02-28T02:30:36;4.07;;;2.78;;
75820;SDS011;64454;51.984;9.838;2023-02-28T02:33:46;4.07;;;2.80;;
75820;SDS011;64454;51.984;9.838;2023-02-28T02:36:57;4.40;;;2.60;;
75820;SDS011;64454;51.984;9.838;2023-02-28T02:39:38;3.92;;;2.60;;
75820;SDS011;64454;51.984;9.838;2023-02-28T02:42:15;4.97;;;2.90;;
75820;SDS011;64454;51.984;9.838;2023-02-28T02:44:52;5.03;;;2.80;;
75820;SDS011;64454;51.984;9.838;2023-02-28T02:47:27;4.85;;;2.92;;
75820;SDS011;64454;51.984;9.838;2023-02-28T02:50:00;4.07;;;3.08;;
75820;SDS011;64454;51.984;9.838;2023-02-28T02:52:34;3.00;;;2.60;;
75820;SDS011;64454;51.984;9.838;2023-02-28T02:55:08;2.80;;;2.40;;
75820;SDS011;64454;51.984;9.838;2023-02-28T02:57:38;3.70;;;2.70;;
75820;SDS011;64454;51.984;9.838;2023-02-28T03:00:12;4.15;;;2.53;;
75820;SDS011;64454;51.984;9.838;2023-02-28T03:02:43;3.50;;;2.60;;
75820;SDS011;64454;51.984;9.838;2023-02-28T03:05:17;3.85;;;2.60;;
75820;SDS011;64454;51.984;9.838;2023-02-28T03:07:49;3.28;;;2.25;;
75820;SDS011;64454;51.984;9.838;2023-02-28T03:10:27;3.22;;;2.55;;
75820;SDS011;64454;51.984;9.838;2023-02-28T03:13:02;4.50;;;2.70;;
75820;SDS011;64454;51.984;9.838;2023-02-28T03:15:55;3.75;;;2.50;;
75820;SDS011;64454;51.984;9.838;2023-02-28T03:18:40;3.75;;;2.80;;
75820;SDS011;64454;51.984;9.838;2023-02-28T03:21:23;3.22;;;2.55;;
75820;SDS011;64454;51.984;9.838;2023-02-28T03:24:02;3.95;;;2.80;;
75820;SDS011;64454;51.984;9.838;2023-02-28T03:26:38;3.83;;;2.70;;
75820;SDS011;64454;51.984;9.838;2023-02-28T03:29:13;4.80;;;3.13;;
75820;SDS011;64454;51.984;9.838;2023-02-28T03:31:48;5.10;;;3.10;;
75820;SDS011;64454;51.984;9.838;2023-02-28T03:34:22;4.30;;;3.08;;
75820;SDS011;64454;51.984;9.838;2023-02-28T03:36:57;5.78;;;3.83;;
75820;SDS011;64454;51.984;9.838;2023-02-28T03:39:34;4.18;;;3.55;;
75820;SDS011;64454;51.984;9.838;2023-02-28T03:42:08;4.50;;;3.75;;
75820;SDS011;64454;51.984;9.838;2023-02-28T03:44:41;4.28;;;3.50;;
75820;SDS011;64454;51.984;9.838;2023-02-28T03:47:12;5.20;;;3.50;;
75820;SDS011;64454;51.984;9.838;2023-02-28T03:49:44;4.75;;;3.28;;
75820;SDS011;64454;51.984;9.838;2023-02-28T03:52:21;5.10;;;3.50;;
75820;SDS011;64454;51.984;9.838;2023-02-28T03:54:53;6.05;;;3.10;;
75820;SDS011;64454;51.984;9.838;2023-02-28T03:57:30;4.03;;;2.90;;
75820;SDS011;64454;51.984;9.838;2023-02-28T04:00:06;4.00;;;3.10;;
75820;SDS011;64454;51.984;9.838;2023-02-28T04:02:40;6.00;;;3.50;;
75820;SDS011;64454;51.984;9.838;2023-02-28T04:05:07;3.23;;;2.80;;
75820;SDS011;64454;51.984;9.838;2023-02-28T04:07:36;4.40;;;2.60;;
75820;SDS011;64454;51.984;9.838;2023-02-28T04:10:04;3.92;;;2.00;;
75820;SDS011;64454;51.984;9.838;2023-02-28T04:12:32;3.05;;;2.10;;
75820;SDS011;64454;51.984;9.838;2023-02-28T04:14:59;3.73;;;2.10;;
75820;SDS011;64454;51.984;9.838;2023-02-28T04:17:26;3.43;;;2.50;;
75820;SDS011;64454;51.984;9.838;2023-02-28T04:19:52;2.90;;;2.60;;
75820;SDS011;64454;51.984;9.838;2023-02-28T04:22:22;3.85;;;2.75;;
75820;SDS011;64454;51.984;9.838;2023-02-28T04:24:52;4.88;;;2.90;;
75820;SDS011;64454;51.984;9.838;2023-02-28T04:27:19;4.10;;;3.40;;
75820;SDS011;64454;51.984;9.838;2023-02-28T04:29:47;5.15;;;3.50;;
75820;SDS011;64454;51.984;9.838;2023-02-28T04:32:14;3.63;;;2.70;;
75820;SDS011;64454;51.984;9.838;2023-02-28T04:34:40;4.72;;;3.45;;
75820;SDS011;64454;51.984;9.838;2023-02-28T04:37:07;4.28;;;3.13;;
75820;SDS011;64454;51.984;9.838;2023-02-28T04:39:35;4.57;;;3.45;;
75820;SDS011;64454;51.984;9.838;2023-02-28T04:42:04;3.75;;;3.10;;
75820;SDS011;64454;51.984;9.838;2023-02-28T04:44:31;4.07;;;2.78;;
75820;SDS011;64454;51.984;9.838;2023-02-28T04:46:58;3.47;;;2.80;;
75820;SDS011;64454;51.984;9.838;2023-02-28T04:49:24;2.42;;;2.15;;
75820;SDS011;64454;51.984;9.838;2023-02-28T04:51:51;3.08;;;2.30;;
75820;SDS011;64454;51.984;9.838;2023-02-28T04:54:19;4.00;;;2.45;;
75820;SDS011;64454;51.984;9.838;2023-02-28T04:56:46;3.15;;;2.25;;
75820;SDS011;64454;51.984;9.838;2023-02-28T04:59:16;3.00;;;2.30;;
75820;SDS011;64454;51.984;9.838;2023-02-28T05:01:45;3.55;;;2.47;;
75820;SDS011;64454;51.984;9.838;2023-02-28T05:04:15;3.93;;;2.20;;
75820;SDS011;64454;51.984;9.838;2023-02-28T05:06:44;2.80;;;2.20;;
75820;SDS011;64454;51.984;9.838;2023-02-28T05:09:11;3.00;;;2.10;;
75820;SDS011;64454;51.984;9.838;2023-02-28T05:11:38;3.65;;;2.30;;
75820;SDS011;64454;51.984;9.838;2023-02-28T05:14:08;2.25;;;1.90;;
75820;SDS011;64454;51.984;9.838;2023-02-28T05:16:40;2.63;;;2.00;;
75820;SDS011;64454;51.984;9.838;2023-02-28T05:19:07;3.42;;;2.30;;
75820;SDS011;64454;51.984;9.838;2023-02-28T05:21:34;3.67;;;3.00;;
75820;SDS011;64454;51.984;9.838;2023-02-28T05:24:04;4.10;;;2.20;;
75820;SDS011;64454;51.984;9.838;2023-02-28T05:26:34;3.90;;;2.00;;
75820;SDS011;64454;51.984;9.838;2023-02-28T05:29:03;4.85;;;2.50;;
75820;SDS011;64454;51.984;9.838;2023-02-28T05:31:31;2.92;;;2.35;;
75820;SDS011;64454;51.984;9.838;2023-02-28T05:33:59;2.70;;;2.10;;
75820;SDS011;64454;51.984;9.838;2023-02-28T05:36:26;2.60;;;1.90;;
75820;SDS011;64454;51.984;9.838;2023-02-28T05:38:53;3.22;;;2.40;;
75820;SDS011;64454;51.984;9.838;2023-02-28T05:41:20;4.18;;;2.30;;
75820;SDS011;64454;51.984;9.838;2023-02-28T05:43:47;3.00;;;2.40;;
75820;SDS011;64454;51.984;9.838;2023-02-28T05:46:15;3.63;;;2.38;;
75820;SDS011;64454;51.984;9.838;2023-02-28T05:48:42;2.80;;;2.28;;
75820;SDS011;64454;51.984;9.838;2023-02-28T05:51:14;3.00;;;2.22;;
75820;SDS011;64454;51.984;9.838;2023-02-28T05:53:42;4.40;;;2.37;;
75820;SDS011;64454;51.984;9.838;2023-02-28T05:56:09;3.60;;;3.00;;
75820;SDS011;64454;51.984;9.838;2023-02-28T05:58:35;3.35;;;2.58;;
75820;SDS011;64454;51.984;9.838;2023-02-28T06:03:51;4.20;;;2.20;;
75820;SDS011;64454;51.984;9.838;2023-02-28T06:06:19;3.27;;;2.40;;
75820;SDS011;64454;51.984;9.838;2023-02-28T06:08:45;2.88;;;2.58;;
75820;SDS011;64454;51.984;9.838;2023-02-28T06:11:13;3.03;;;2.60;;
75820;SDS011;64454;51.984;9.838;2023-02-28T06:13:40;3.55;;;2.33;;
75820;SDS011;64454;51.984;9.838;2023-02-28T06:16:07;4.07;;;2.73;;
75820;SDS011;64454;51.984;9.838;2023-02-28T06:18:38;4.13;;;2.65;;
75820;SDS011;64454;51.984;9.838;2023-02-28T06:21:05;3.53;;;2.50;;
75820;SDS011;64454;51.984;9.838;2023-02-28T06:23:35;3.20;;;2.70;;
75820;SDS011;64454;51.984;9.838;2023-02-28T06:26:02;3.45;;;3.15;;
75820;SDS011;64454;51.984;9.838;2023-02-28T06:28:28;3.45;;;2.80;;
75820;SDS011;64454;51.984;9.838;2023-02-28T06:30:55;3.45;;;3.15;;
75820;SDS011;64454;51.984;9.838;2023-02-28T06:33:22;3.70;;;2.90;;
75820;SDS011;64454;51.984;9.838;2023-02-28T06:35:50;5.00;;;3.42;;
75820;SDS011;64454;51.984;9.838;2023-02-28T06:38:17;5.90;;;3.70;;
75820;SDS011;64454;51.984;9.838;2023-02-28T06:40:48;8.85;;;5.00;;
75820;SDS011;64454;51.984;9.838;2023-02-28T06:43:20;8.35;;;5.70;;
75820;SDS011;64454;51.984;9.838;2023-02-28T06:45:47;11.93;;;6.90;;
75820;SDS011;64454;51.984;9.838;2023-02-28T06:48:14;7.97;;;4.80;;
75820;SDS011;64454;51.984;9.838;2023-02-28T06:50:40;6.55;;;4.15;;
75820;SDS011;64454;51.984;9.838;2023-02-28T06:53:07;7.30;;;3.90;;
75820;SDS011;64454;51.984;9.838;2023-02-28T06:55:34;5.72;;;4.20;;
75820;SDS011;64454;51.984;9.838;2023-02-28T06:58:05;10.27;;;6.30;;
75820;SDS011;64454;51.984;9.838;2023-02-28T07:00:39;8.25;;;5.50;;
75820;SDS011;64454;51.984;9.838;2023-02-28T07:03:07;9.60;;;5.40;;
75820;SDS011;64454;51.984;9.838;2023-02-28T07:05:34;8.40;;;5.57;;
75820;SDS011;64454;51.984;9.838;2023-02-28T07:08:01;9.45;;;4.80;;
75820;SDS011;64454;51.984;9.838;2023-02-28T07:10:28;9.38;;;5.80;;
75820;SDS011;64454;51.984;9.838;2023-02-28T07:12:55;9.68;;;6.88;;
75820;SDS011;64454;51.984;9.838;2023-02-28T07:15:23;7.10;;;5.40;;
75820;SDS011;64454;51.984;9.838;2023-02-28T07:17:50;9.70;;;5.60;;
75820;SDS011;64454;51.984;9.838;2023-02-28T07:20:17;8.55;;;5.80;;
75820;SDS011;64454;51.984;9.838;2023-02-28T07:22:44;9.95;;;5.30;;
75820;SDS011;64454;51.984;9.838;2023-02-28T07:25:11;10.13;;;6.50;;
75820;SDS011;64454;51.984;9.838;2023-02-28T07:27:37;10.77;;;6.57;;
75820;SDS011;64454;51.984;9.838;2023-02-28T07:30:05;9.98;;;6.53;;
75820;SDS011;64454;51.984;9.838;2023-02-28T07:32:34;10.98;;;6.75;;
75820;SDS011;64454;51.984;9.838;2023-02-28T07:35:03;8.52;;;6.32;;
75820;SDS011;64454;51.984;9.838;2023-02-28T07:37:30;8.73;;;5.60;;
75820;SDS011;64454;51.984;9.838;2023-02-28T07:40:01;7.55;;;5.60;;
75820;SDS011;64454;51.984;9.838;2023-02-28T07:42:31;7.07;;;4.90;;
75820;SDS011;64454;51.984;9.838;2023-02-28T07:44:58;5.88;;;4.50;;
75820;SDS011;64454;51.984;9.838;2023-02-28T07:47:25;6.60;;;5.05;;
75820;SDS011;64454;51.984;9.838;2023-02-28T07:49:53;5.97;;;4.50;;
75820;SDS011;64454;51.984;9.838;2023-02-28T07:52:19;5.63;;;4.10;;
75820;SDS011;64454;51.984;9.838;2023-02-28T07:54:48;5.95;;;3.80;;
75820;SDS011;64454;51.984;9.838;2023-02-28T07:57:15;5.75;;;3.85;;
75820;SDS011;64454;51.984;9.838;2023-02-28T07:59:42;5.10;;;4.00;;
75820;SDS011;64454;51.984;9.838;2023-02-28T08:02:09;7.23;;;4.53;;
75820;SDS011;64454;51.984;9.838;2023-02-28T08:04:39;4.97;;;4.25;;
75820;SDS011;64454;51.984;9.838;2023-02-28T08:07:08;4.85;;;4.07;;
75820;SDS011;64454;51.984;9.838;2023-02-28T08:09:38;6.10;;;4.60;;
75820;SDS011;64454;51.984;9.838;2023-02-28T08:12:05;4.72;;;4.22;;
75820;SDS011;64454;51.984;9.838;2023-02-28T08:14:33;6.00;;;4.45;;
75820;SDS011;64454;51.984;9.838;2023-02-28T08:17:01;6.32;;;4.55;;
75820;SDS011;64454;51.984;9.838;2023-02-28T08:19:28;6.78;;;4.97;;
75820;SDS011;64454;51.984;9.838;2023-02-28T08:21:56;5.20;;;4.70;;
75820;SDS011;64454;51.984;9.838;2023-02-28T08:24:24;6.03;;;4.70;;
75820;SDS011;64454;51.984;9.838;2023-02-28T08:26:51;4.93;;;4.35;;
75820;SDS011;64454;51.984;9.838;2023-02-28T08:29:18;5.85;;;3.90;;
75820;SDS011;64454;51.984;9.838;2023-02-28T08:31:46;5.00;;;3.80;;
75820;SDS011;64454;51.984;9.838;2023-02-28T08:34:13;5.28;;;4.10;;
75820;SDS011;64454;51.984;9.838;2023-02-28T08:36:44;9.13;;;4.30;;
75820;SDS011;64454;51.984;9.838;2023-02-28T08:39:11;5.15;;;4.10;;
75820;SDS011;64454;51.984;9.838;2023-02-28T08:41:39;7.57;;;3.80;;
75820;SDS011;64454;51.984;9.838;2023-02-28T08:44:09;4.43;;;3.50;;
75820;SDS011;64454;51.984;9.838;2023-02-28T08:46:36;4.55;;;3.78;;
75820;SDS011;64454;51.984;9.838;2023-02-28T08:49:04;5.00;;;4.20;;
75820;SDS011;64454;51.984;9.838;2023-02-28T08:51:32;4.43;;;3.87;;
75820;SDS011;64454;51.984;9.838;2023-02-28T08:53:59;6.10;;;4.07;;
75820;SDS011;64454;51.984;9.838;2023-02-28T08:56:27;5.45;;;3.35;;
75820;SDS011;64454;51.984;9.838;2023-02-28T08:58:56;5.70;;;3.90;;
75820;SDS011;64454;51.984;9.838;2023-02-28T09:01:24;6.90;;;4.10;;
75820;SDS011;64454;51.984;9.838;2023-02-28T09:03:53;5.20;;;3.90;;
75820;SDS011;64454;51.984;9.838;2023-02-28T09:06:22;5.00;;;3.80;;
75820;SDS011;64454;51.984;9.838;2023-02-28T09:08:52;6.10;;;4.07;;
75820;SDS011;64454;51.984;9.838;2023-02-28T09:11:20;4.60;;;4.10;;
75820;SDS011;64454;51.984;9.838;2023-02-28T09:13:47;9.05;;;4.10;;
75820;SDS011;64454;51.984;9.838;2023-02-28T09:16:15;7.20;;;5.10;;
75820;SDS011;64454;51.984;9.838;2023-02-28T09:18:43;12.95;;;7.78;;
75820;SDS011;64454;51.984;9.838;2023-02-28T09:21:14;8.55;;;5.25;;
75820;SDS011;64454;51.984;9.838;2023-02-28T09:23:44;9.77;;;5.20;;
75820;SDS011;64454;51.984;9.838;2023-02-28T09:26:13;5.90;;;4.57;;
75820;SDS011;64454;51.984;9.838;2023-02-28T09:28:42;5.97;;;5.10;;
75820;SDS011;64454;51.984;9.838;2023-02-28T09:31:13;9.77;;;4.72;;
75820;SDS011;64454;51.984;9.838;2023-02-28T09:33:45;7.15;;;5.20;;
75820;SDS011;64454;51.984;9.838;2023-02-28T09:36:12;6.65;;;4.90;;
75820;SDS011;64454;51.984;9.838;2023-02-28T09:38:39;7.13;;;4.53;;
75820;SDS011;64454;51.984;9.838;2023-02-28T09:41:10;7.28;;;4.47;;
75820;SDS011;64454;51.984;9.838;2023-02-28T09:43:40;7.40;;;4.40;;
75820;SDS011;64454;51.984;9.838;2023-02-28T09:46:17;4.57;;;3.70;;
75820;SDS011;64454;51.984;9.838;2023-02-28T09:48:57;3.50;;;3.20;;
75820;SDS011;64454;51.984;9.838;2023-02-28T09:51:30;4.40;;;3.00;;
75820;SDS011;64454;51.984;9.838;2023-02-28T09:54:11;2.83;;;1.90;;
75820;SDS011;64454;51.984;9.838;2023-02-28T09:56:45;2.50;;;2.30;;
75820;SDS011;64454;51.984;9.838;2023-02-28T09:59:29;3.10;;;2.60;;
75820;SDS011;64454;51.984;9.838;2023-02-28T10:02:16;2.45;;;2.00;;
75820;SDS011;64454;51.984;9.838;2023-02-28T10:05:06;3.20;;;2.50;;
75820;SDS011;64454;51.984;9.838;2023-02-28T10:07:43;3.50;;;2.28;;
75820;SDS011;64454;51.984;9.838;2023-02-28T10:10:31;5.25;;;2.60;;
75820;SDS011;64454;51.984;9.838;2023-02-28T10:13:05;3.30;;;2.50;;
75820;SDS011;64454;51.984;9.838;2023-02-28T10:15:49;3.90;;;2.50;;
75820;SDS011;64454;51.984;9.838;2023-02-28T10:18:24;4.07;;;2.50;;
75820;SDS011;64454;51.984;9.838;2023-02-28T10:21:01;2.85;;;2.33;;
75820;SDS011;64454;51.984;9.838;2023-02-28T10:23:31;3.00;;;2.70;;
75820;SDS011;64454;51.984;9.838;2023-02-28T10:26:05;3.17;;;2.33;;
75820;SDS011;64454;51.984;9.838;2023-02-28T10:28:40;2.80;;;2.40;;
75820;SDS011;64454;51.984;9.838;2023-02-28T10:31:08;3.03;;;2.10;;
75820;SDS011;64454;51.984;9.838;2023-02-28T10:33:43;4.80;;;2.30;;
75820;SDS011;64454;51.984;9.838;2023-02-28T10:36:12;2.47;;;2.00;;
75820;SDS011;64454;51.984;9.838;2023-02-28T10:38:42;3.20;;;2.33;;
75820;SDS011;64454;51.984;9.838;2023-02-28T10:41:11;3.35;;;2.33;;
75820;SDS011;64454;51.984;9.838;2023-02-28T10:43:41;3.03;;;2.53;;
75820;SDS011;64454;51.984;9.838;2023-02-28T10:46:12;3.53;;;2.60;;
75820;SDS011;64454;51.984;9.838;2023-02-28T10:49:02;3.45;;;2.70;;
75820;SDS011;64454;51.984;9.838;2023-02-28T10:51:38;2.70;;;2.38;;
75820;SDS011;64454;51.984;9.838;2023-02-28T10:54:13;2.35;;;2.00;;
75820;SDS011;64454;51.984;9.838;2023-02-28T10:56:46;3.20;;;2.10;;
75820;SDS011;64454;51.984;9.838;2023-02-28T10:59:35;3.93;;;2.70;;
75820;SDS011;64454;51.984;9.838;2023-02-28T11:02:07;4.10;;;2.70;;
75820;SDS011;64454;51.984;9.838;2023-02-28T11:04:59;3.80;;;2.42;;
75820;SDS011;64454;51.984;9.838;2023-02-28T11:07:26;3.38;;;2.33;;
75820;SDS011;64454;51.984;9.838;2023-02-28T11:09:54;2.90;;;2.20;;
75820;SDS011;64454;51.984;9.838;2023-02-28T11:12:25;2.72;;;2.30;;
75820;SDS011;64454;51.984;9.838;2023-02-28T11:15:03;4.10;;;2.80;;
75820;SDS011;64454;51.984;9.838;2023-02-28T11:17:52;2.40;;;2.20;;
75820;SDS011;64454;51.984;9.838;2023-02-28T11:20:24;3.10;;;2.10;;
75820;SDS011;64454;51.984;9.838;2023-02-28T11:22:54;4.82;;;2.80;;
75820;SDS011;64454;51.984;9.838;2023-02-28T11:25:24;4.30;;;2.60;;
75820;SDS011;64454;51.984;9.838;2023-02-28T11:27:55;4.43;;;2.55;;
75820;SDS011;64454;51.984;9.838;2023-02-28T11:30:27;3.50;;;2.70;;
75820;SDS011;64454;51.984;9.838;2023-02-28T11:33:18;3.20;;;2.30;;
75820;SDS011;64454;51.984;9.838;2023-02-28T11:35:51;3.53;;;2.67;;
75820;SDS011;64454;51.984;9.838;2023-02-28T11:38:23;4.22;;;2.70;;
75820;SDS011;64454;51.984;9.838;2023-02-28T11:40:56;3.22;;;2.60;;
75820;SDS011;64454;51.984;9.838;2023-02-28T11:43:50;2.90;;;2.60;;
75820;SDS011;64454;51.984;9.838;2023-02-28T11:46:44;3.97;;;2.80;;
75820;SDS011;64454;51.984;9.838;2023-02-28T11:49:26;3.30;;;2.30;;
75820;SDS011;64454;51.984;9.838;2023-02-28T11:52:06;4.30;;;2.63;;
75820;SDS011;64454;51.984;9.838;2023-02-28T11:54:51;2.78;;;2.22;;
75820;SDS011;64454;51.984;9.838;2023-02-28T11:57:36;4.80;;;2.40;;
75820;SDS011;64454;51.984;9.838;2023-02-28T12:00:25;3.00;;;2.20;;
75820;SDS011;64454;51.984;9.838;2023-02-28T12:03:15;2.95;;;1.90;;
75820;SDS011;64454;51.984;9.838;2023-02-28T12:05:58;2.03;;;1.60;;
75820;SDS011;64454;51.984;9.838;2023-02-28T12:08:44;2.10;;;1.90;;
75820;SDS011;64454;51.984;9.838;2023-02-28T12:11:30;2.60;;;1.92;;
75820;SDS011;64454;51.984;9.838;2023-02-28T12:14:18;3.00;;;2.00;;
75820;SDS011;64454;51.984;9.838;2023-02-28T12:17:12;4.05;;;2.10;;
75820;SDS011;64454;51.984;9.838;2023-02-28T12:19:57;4.20;;;1.90;;
75820;SDS011;64454;51.984;9.838;2023-02-28T12:22:40;2.95;;;1.80;;
75820;SDS011;64454;51.984;9.838;2023-02-28T12:25:24;3.30;;;2.00;;
75820;SDS011;64454;51.984;9.838;2023-02-28T12:28:14;3.40;;;2.20;;
75820;SDS011;64454;51.984;9.838;2023-02-28T12:30:50;2.40;;;2.10;;
75820;SDS011;64454;51.984;9.838;2023-02-28T12:33:24;2.77;;;2.00;;
75820;SDS011;64454;51.984;9.838;2023-02-28T12:35:59;3.92;;;2.20;;
75820;SDS011;64454;51.984;9.838;2023-02-28T12:38:36;2.97;;;1.92;;
75820;SDS011;64454;51.984;9.838;2023-02-28T12:41:11;3.17;;;2.05;;
75820;SDS011;64454;51.984;9.838;2023-02-28T12:43:43;3.10;;;2.35;;
75820;SDS011;64454;51.984;9.838;2023-02-28T12:46:15;3.28;;;2.10;;
75820;SDS011;64454;51.984;9.838;2023-02-28T12:48:50;3.33;;;2.40;;
75820;SDS011;64454;51.984;9.838;2023-02-28T12:51:21;3.25;;;2.72;;
75820;SDS011;64454;51.984;9.838;2023-02-28T12:53:57;3.20;;;2.13;;
75820;SDS011;64454;51.984;9.838;2023-02-28T12:56:36;3.35;;;2.38;;
75820;SDS011;64454;51.984;9.838;2023-02-28T12:59:16;3.20;;;2.50;;
75820;SDS011;64454;51.984;9.838;2023-02-28T13:01:57;3.30;;;2.55;;
75820;SDS011;64454;51.984;9.838;2023-02-28T13:04:47;2.63;;;2.10;;
75820;SDS011;64454;51.984;9.838;2023-02-28T13:07:49;3.70;;;2.60;;
75820;SDS011;64454;51.984;9.838;2023-02-28T13:10:38;4.53;;;2.80;;
75820;SDS011;64454;51.984;9.838;2023-02-28T13:13:14;3.03;;;2.50;;
75820;SDS011;64454;51.984;9.838;2023-02-28T13:15:58;3.20;;;2.40;;
75820;SDS011;64454;51.984;9.838;2023-02-28T13:18:30;3.05;;;2.33;;
75820;SDS011;64454;51.984;9.838;2023-02-28T13:21:02;4.25;;;2.78;;
75820;SDS011;64454;51.984;9.838;2023-02-28T13:29:52;3.10;;;2.70;;
75820;SDS011;64454;51.984;9.838;2023-02-28T13:38:09;3.80;;;2.97;;
75820;SDS011;64454;51.984;9.838;2023-02-28T13:40:50;2.40;;;1.90;;
75820;SDS011;64454;51.984;9.838;2023-02-28T13:43:17;4.20;;;2.58;;
75820;SDS011;64454;51.984;9.838;2023-02-28T13:48:37;2.78;;;2.38;;
75820;SDS011;64454;51.984;9.838;2023-02-28T13:54:13;3.70;;;2.40;;
75820;SDS011;64454;51.984;9.838;2023-02-28T13:56:57;4.90;;;2.67;;
75820;SDS011;64454;51.984;9.838;2023-02-28T13:59:42;3.63;;;2.40;;
75820;SDS011;64454;51.984;9.838;2023-02-28T14:02:29;3.45;;;2.20;;
75820;SDS011;64454;51.984;9.838;2023-02-28T14:05:14;4.55;;;2.45;;
75820;SDS011;64454;51.984;9.838;2023-02-28T14:07:45;3.00;;;2.70;;
75820;SDS011;64454;51.984;9.838;2023-02-28T14:10:21;3.30;;;2.55;;
75820;SDS011;64454;51.984;9.838;2023-02-28T14:13:00;4.53;;;2.50;;
75820;SDS011;64454;51.984;9.838;2023-02-28T14:15:41;2.97;;;2.42;;
75820;SDS011;64454;51.984;9.838;2023-02-28T14:18:16;3.90;;;2.90;;
75820;SDS011;64454;51.984;9.838;2023-02-28T14:20:48;3.80;;;2.60;;
75820;SDS011;64454;51.984;9.838;2023-02-28T14:23:24;3.28;;;2.60;;
75820;SDS011;64454;51.984;9.838;2023-02-28T14:26:10;3.35;;;2.55;;
75820;SDS011;64454;51.984;9.838;2023-02-28T14:28:59;3.78;;;2.58;;
75820;SDS011;64454;51.984;9.838;2023-02-28T14:31:51;6.82;;;3.35;;
75820;SDS011;64454;51.984;9.838;2023-02-28T14:34:35;3.85;;;2.90;;
75820;SDS011;64454;51.984;9.838;2023-02-28T14:37:11;5.90;;;3.00;;
75820;SDS011;64454;51.984;9.838;2023-02-28T14:39:45;4.20;;;3.07;;
75820;SDS011;64454;51.984;9.838;2023-02-28T14:42:25;3.97;;;2.88;;
75820;SDS011;64454;51.984;9.838;2023-02-28T14:44:55;3.35;;;2.70;;
75820;SDS011;64454;51.984;9.838;2023-02-28T14:47:23;3.65;;;2.90;;
75820;SDS011;64454;51.984;9.838;2023-02-28T14:49:55;3.70;;;2.65;;
75820;SDS011;64454;51.984;9.838;2023-02-28T14:52:25;3.17;;;2.80;;
75820;SDS011;64454;51.984;9.838;2023-02-28T14:54:55;3.70;;;3.10;;
75820;SDS011;64454;51.984;9.838;2023-02-28T14:57:25;3.60;;;3.08;;
75820;SDS011;64454;51.984;9.838;2023-02-28T14:59:59;3.97;;;3.30;;
75820;SDS011;64454;51.984;9.838;2023-02-28T15:02:35;3.72;;;2.92;;
75820;SDS011;64454;51.984;9.838;2023-02-28T15:05:16;4.70;;;3.20;;
75820;SDS011;64454;51.984;9.838;2023-02-28T15:08:01;3.95;;;2.88;;
75820;SDS011;64454;51.984;9.838;2023-02-28T15:10:37;3.80;;;3.40;;
75820;SDS011;64454;51.984;9.838;2023-02-28T15:13:06;5.50;;;3.47;;
75820;SDS011;64454;51.984;9.838;2023-02-28T15:15:40;5.07;;;3.10;;
75820;SDS011;64454;51.984;9.838;2023-02-28T15:18:15;4.30;;;3.20;;
75820;SDS011;64454;51.984;9.838;2023-02-28T15:20:54;4.15;;;3.13;;
75820;SDS011;64454;51.984;9.838;2023-02-28T15:23:24;3.55;;;2.90;;
75820;SDS011;64454;51.984;9.838;2023-02-28T15:25:51;3.70;;;3.00;;
75820;SDS011;64454;51.984;9.838;2023-02-28T15:28:20;4.03;;;2.90;;
75820;SDS011;64454;51.984;9.838;2023-02-28T15:30:51;6.65;;;3.47;;
75820;SDS011;64454;51.984;9.838;2023-02-28T15:33:23;7.00;;;5.30;;
75820;SDS011;64454;51.984;9.838;2023-02-28T15:35:51;3.75;;;3.38;;
75820;SDS011;64454;51.984;9.838;2023-02-28T15:38:36;3.85;;;2.75;;
75820;SDS011;64454;51.984;9.838;2023-02-28T15:41:03;3.42;;;2.70;;
75820;SDS011;64454;51.984;9.838;2023-02-28T15:43:33;3.50;;;3.20;;